Time;durP1;ratioP1;P1;durP2;ratioP2;P2;SDS_P1;SDS_P2;PMS_P1;PMS_P2;Temp;Humidity;BMP_temperature;BMP_pressure;BME280_temperature;BME280_humidity;BME280_pressure;Samples;Min_cycle;Max_cycle;Signal;HPM_P1;HPM_P2
2022/10/25 00:01:17;;;;;;;2.13;0.85;;;22.80;67.50;;;;;;6179959;23;20341;-70
2022/10/25 00:03:44;;;;;;;2.97;0.80;;;22.80;67.40;;;;;;6179510;23;20091;-70
2022/10/25 00:06:12;;;;;;;5.85;0.90;;;22.80;67.40;;;;;;6179212;23;20005;-70
2022/10/25 00:08:39;;;;;;;9.07;1.50;;;22.80;67.40;;;;;;6180139;23;20005;-70
2022/10/25 00:11:07;;;;;;;6.07;1.10;;;22.80;67.70;;;;;;6178786;23;20005;-70
2022/10/25 00:13:34;;;;;;;1.10;0.70;;;22.70;67.80;;;;;;6180108;23;20008;-68
2022/10/25 00:16:01;;;;;;;2.33;0.55;;;22.70;67.90;;;;;;6178650;23;20901;-68
2022/10/25 00:18:27;;;;;;;2.67;0.70;;;22.60;67.80;;;;;;6179703;23;20009;-69
2022/10/25 00:20:54;;;;;;;1.00;0.70;;;22.70;67.80;;;;;;6178699;23;20008;-70
2022/10/25 00:23:20;;;;;;;4.07;0.77;;;22.60;67.80;;;;;;6179122;23;20045;-70
2022/10/25 00:25:47;;;;;;;2.20;0.65;;;22.60;67.70;;;;;;6179565;23;20088;-69
2022/10/25 00:28:13;;;;;;;2.63;0.45;;;22.60;67.70;;;;;;6178022;23;20048;-69
2022/10/25 00:30:40;;;;;;;3.13;0.85;;;22.50;67.60;;;;;;6179564;23;20008;-70
2022/10/25 00:33:06;;;;;;;1.15;0.73;;;22.50;67.60;;;;;;6178842;23;20001;-69
2022/10/25 00:35:35;;;;;;;3.55;1.08;;;22.50;67.60;;;;;;6179870;23;20013;-70
2022/10/25 00:38:02;;;;;;;2.22;0.68;;;22.50;67.50;;;;;;6180725;23;20014;-70
2022/10/25 00:40:28;;;;;;;1.75;0.60;;;22.50;67.60;;;;;;6181483;23;20051;-70
2022/10/25 00:42:55;;;;;;;3.63;1.20;;;22.50;67.50;;;;;;6181700;23;20009;-68
2022/10/25 00:45:24;;;;;;;17.13;4.75;;;22.50;67.40;;;;;;6181093;23;20048;-69
2022/10/25 00:48:02;;;;;;;9.68;1.73;;;22.50;67.50;;;;;;6181874;23;20028;-70
2022/10/25 00:50:47;;;;;;;2.83;0.93;;;22.50;67.50;;;;;;6180309;23;20009;-70
2022/10/25 00:53:28;;;;;;;5.32;1.20;;;22.50;67.50;;;;;;6182343;23;20009;-69
2022/10/25 00:56:19;;;;;;;2.53;1.25;;;22.40;67.30;;;;;;6181091;23;20106;-71
2022/10/25 00:58:49;;;;;;;1.77;0.85;;;22.40;67.00;;;;;;6180382;23;20085;-70
2022/10/25 01:01:16;;;;;;;2.80;0.88;;;22.40;66.80;;;;;;6182100;23;20005;-70
2022/10/25 01:03:46;;;;;;;3.25;0.73;;;22.40;66.60;;;;;;6180442;23;20027;-70
2022/10/25 01:06:22;;;;;;;1.67;0.50;;;22.40;66.40;;;;;;6181651;23;20080;-70
2022/10/25 01:08:51;;;;;;;2.60;0.60;;;22.40;66.40;;;;;;6181165;23;20373;-68
2022/10/25 01:11:18;;;;;;;1.48;0.90;;;22.30;66.10;;;;;;6180774;23;20047;-70
2022/10/25 01:13:45;;;;;;;3.45;0.70;;;22.40;66.10;;;;;;6181582;23;20001;-69
2022/10/25 01:16:31;;;;;;;0.90;0.70;;;22.30;65.90;;;;;;6180456;23;20318;-69
2022/10/25 01:19:26;;;;;;;4.10;0.93;;;22.30;66.00;;;;;;6181766;23;20005;-69
2022/10/25 01:22:12;;;;;;;4.35;1.17;;;22.30;66.30;;;;;;6155108;23;20337;-69
2022/10/25 01:25:00;;;;;;;2.10;0.68;;;22.30;66.60;;;;;;6180127;23;20068;-71
2022/10/25 01:27:51;;;;;;;4.20;1.45;;;22.30;66.20;;;;;;6181401;23;20021;-71
2022/10/25 01:30:23;;;;;;;5.45;2.17;;;22.30;65.80;;;;;;6180535;23;20009;-70
2022/10/25 01:33:01;;;;;;;3.08;1.15;;;22.30;66.00;;;;;;6180772;23;20005;-70
2022/10/25 01:35:52;;;;;;;6.40;1.52;;;22.20;65.70;;;;;;6181264;23;20317;-70
2022/10/25 01:38:43;;;;;;;3.05;0.60;;;22.20;65.40;;;;;;6179998;23;20012;-70
2022/10/25 01:41:21;;;;;;;3.85;0.60;;;22.20;65.20;;;;;;6181659;23;20001;-69
2022/10/25 01:43:51;;;;;;;1.50;0.40;;;22.20;65.00;;;;;;6181091;23;20431;-70
2022/10/25 01:46:28;;;;;;;2.03;0.43;;;22.10;64.80;;;;;;6179681;23;20009;-68
2022/10/25 01:49:07;;;;;;;1.70;0.77;;;22.10;64.70;;;;;;6181094;23;20451;-71
2022/10/25 01:51:37;;;;;;;5.93;0.90;;;22.10;64.60;;;;;;6180302;23;20005;-70
2022/10/25 01:54:17;;;;;;;1.38;0.60;;;22.10;64.40;;;;;;6180867;23;20005;-70
2022/10/25 01:57:10;;;;;;;1.40;0.65;;;22.10;64.30;;;;;;6180941;23;20052;-70
2022/10/25 01:59:55;;;;;;;3.30;0.60;;;22.10;64.20;;;;;;6114709;23;20039;-70
2022/10/25 02:02:36;;;;;;;0.95;0.50;;;22.10;64.10;;;;;;6181114;23;20005;-71
2022/10/25 02:05:06;;;;;;;6.00;0.63;;;22.00;64.00;;;;;;6180657;23;20013;-71
2022/10/25 02:07:40;;;;;;;1.58;0.75;;;22.00;63.90;;;;;;6180399;23;20432;-70
2022/10/25 02:10:21;;;;;;;0.75;0.38;;;22.00;63.80;;;;;;6181350;23;20013;-69
2022/10/25 02:12:57;;;;;;;1.67;0.63;;;21.90;63.80;;;;;;6180258;23;20433;-71
2022/10/25 02:15:40;;;;;;;3.22;0.65;;;21.90;63.70;;;;;;6180815;23;20023;-70
2022/10/25 02:18:14;;;;;;;0.80;0.60;;;21.90;63.50;;;;;;6180355;23;20016;-70
2022/10/25 02:20:44;;;;;;;2.80;0.85;;;21.90;63.40;;;;;;6180039;23;20051;-68
2022/10/25 02:23:11;;;;;;;2.38;0.90;;;21.90;63.30;;;;;;6180990;23;20001;-68
2022/10/25 02:25:40;;;;;;;5.40;0.98;;;21.90;63.20;;;;;;6179034;23;20483;-70
2022/10/25 02:28:10;;;;;;;6.18;2.17;;;21.90;63.20;;;;;;6180466;23;20096;-71
2022/10/25 02:30:39;;;;;;;2.08;0.88;;;21.80;63.20;;;;;;6179932;23;20096;-70
2022/10/25 02:33:06;;;;;;;2.55;1.15;;;21.80;63.20;;;;;;6181075;23;20009;-71
2022/10/25 02:35:32;;;;;;;22.25;5.32;;;21.80;63.20;;;;;;6179993;23;20351;-71
2022/10/25 02:37:59;;;;;;;35.10;11.25;;;21.80;63.50;;;;;;6179808;23;20679;-70
2022/10/25 02:40:26;;;;;;;17.38;9.43;;;21.80;64.00;;;;;;6180593;23;20072;-69
2022/10/25 02:42:53;;;;;;;18.95;7.15;;;21.70;64.10;;;;;;6179140;23;20016;-70
2022/10/25 02:45:19;;;;;;;6.80;3.90;;;21.70;64.00;;;;;;6180850;23;20455;-69
2022/10/25 02:47:46;;;;;;;3.20;2.03;;;21.70;63.70;;;;;;6179521;23;20033;-70
2022/10/25 02:50:12;;;;;;;1.38;1.20;;;21.60;63.50;;;;;;6180502;23;20003;-68
2022/10/25 02:52:39;;;;;;;2.33;1.13;;;21.70;63.40;;;;;;6180290;23;20008;-70
2022/10/25 02:55:45;;;;;;;6.97;1.73;;;21.60;63.20;;;;;;6179464;23;20023;-68
2022/10/25 02:58:31;;;;;;;;;;;21.60;63.10;;;;;;6181023;23;20024;-70
2022/10/25 03:01:37;;;;;;;4.97;1.45;;;21.60;63.00;;;;;;6179638;23;19928;-70
2022/10/25 03:04:43;;;;;;;1.88;0.95;;;21.60;63.00;;;;;;6179558;23;20172;-71
2022/10/25 03:07:49;;;;;;;0.65;0.65;;;21.60;62.70;;;;;;6181149;23;20009;-70
2022/10/25 03:10:56;;;;;;;6.07;1.00;;;21.60;62.80;;;;;;6179857;23;20019;-71
2022/10/25 03:14:02;;;;;;;2.90;0.90;;;21.50;62.60;;;;;;6179200;23;20393;-68
2022/10/25 03:17:08;;;;;;;3.47;0.90;;;21.50;62.60;;;;;;6179856;23;20065;-68
2022/10/25 03:20:14;;;;;;;14.55;5.68;;;21.50;62.50;;;;;;6180314;23;20005;-69
2022/10/25 03:22:41;;;;;;;25.20;11.73;;;21.50;62.50;;;;;;6179116;23;20385;-69
2022/10/25 03:25:07;;;;;;;16.38;9.45;;;21.50;63.10;;;;;;6179738;23;20408;-70
2022/10/25 03:27:34;;;;;;;13.52;7.32;;;21.50;63.00;;;;;;6179954;23;20013;-70
2022/10/25 03:30:00;;;;;;;11.60;5.07;;;21.50;62.80;;;;;;6179143;23;20016;-70
2022/10/25 03:32:27;;;;;;;5.93;4.18;;;21.50;62.50;;;;;;6180416;23;20005;-70
2022/10/25 03:34:53;;;;;;;14.20;2.95;;;21.50;62.30;;;;;;6178711;23;20032;-70
2022/10/25 03:37:20;;;;;;;2.55;1.25;;;21.50;62.10;;;;;;6179888;23;20329;-69
2022/10/25 03:39:46;;;;;;;3.30;1.40;;;21.50;62.00;;;;;;6178993;23;20586;-70
2022/10/25 03:42:12;;;;;;;3.53;2.15;;;21.40;61.90;;;;;;6179999;23;20016;-68
2022/10/25 03:44:39;;;;;;;6.22;1.25;;;21.40;61.80;;;;;;6179264;23;20001;-70
2022/10/25 03:47:05;;;;;;;2.50;1.02;;;21.40;61.70;;;;;;6179956;23;20040;-71
2022/10/25 03:49:32;;;;;;;4.93;1.15;;;21.40;61.70;;;;;;6179664;23;20052;-70
2022/10/25 03:51:58;;;;;;;10.32;0.88;;;21.40;61.60;;;;;;6178975;23;20063;-70
2022/10/25 03:54:25;;;;;;;2.40;1.15;;;21.40;61.60;;;;;;6179972;23;20013;-69
2022/10/25 03:56:51;;;;;;;1.88;0.98;;;21.40;61.50;;;;;;6178813;23;20015;-71
2022/10/25 03:59:18;;;;;;;5.53;2.60;;;21.40;61.40;;;;;;6179855;23;20061;-70
2022/10/25 07:53:09;;;;;;;3.17;1.02;;;23.10;53.90;;;;;;6057113;23;2482712;-70
2022/10/25 07:55:36;;;;;;;2.35;0.90;;;23.10;53.60;;;;;;6152246;23;20009;-70
2022/10/25 07:58:05;;;;;;;2.60;0.73;;;23.20;53.60;;;;;;6151569;23;20004;-70
2022/10/25 08:00:32;;;;;;;2.75;0.70;;;23.20;53.40;;;;;;6152446;23;20004;-70
2022/10/25 08:02:58;;;;;;;3.90;1.10;;;23.20;53.30;;;;;;6151156;23;19998;-71
2022/10/25 08:05:24;;;;;;;2.08;0.68;;;23.20;53.20;;;;;;6152045;23;20013;-70
2022/10/25 08:07:51;;;;;;;2.35;0.80;;;23.20;53.30;;;;;;6151171;23;20092;-70
2022/10/25 08:10:19;;;;;;;3.58;1.48;;;23.20;53.30;;;;;;6152351;23;20013;-70
2022/10/25 08:12:46;;;;;;;1.98;0.88;;;23.30;52.90;;;;;;6152058;23;20002;-70
2022/10/25 08:15:13;;;;;;;4.00;1.33;;;23.30;53.00;;;;;;6151170;23;20440;-71
2022/10/25 08:17:39;;;;;;;3.38;0.65;;;23.30;53.00;;;;;;6152594;23;20129;-70
2022/10/25 08:20:06;;;;;;;4.18;1.05;;;23.30;52.90;;;;;;6151487;23;20002;-71
2022/10/25 08:22:33;;;;;;;5.80;1.58;;;23.40;53.00;;;;;;6152830;23;20080;-70
2022/10/25 08:24:59;;;;;;;3.33;0.88;;;23.40;52.80;;;;;;6150668;23;20020;-70
2022/10/25 08:27:26;;;;;;;4.28;0.88;;;23.40;52.60;;;;;;6152249;23;20024;-70
2022/10/25 08:29:52;;;;;;;9.95;1.65;;;23.50;52.30;;;;;;6150776;23;20008;-71
2022/10/25 08:32:19;;;;;;;10.18;1.67;;;23.50;52.50;;;;;;6151779;23;20009;-70
2022/10/25 08:34:45;;;;;;;3.05;1.85;;;23.50;52.50;;;;;;6151932;23;20005;-70
2022/10/25 08:37:12;;;;;;;20.00;1.83;;;23.50;52.50;;;;;;6150826;23;20002;-70
2022/10/25 08:39:39;;;;;;;5.03;1.05;;;23.50;52.30;;;;;;6152240;23;20005;-70
2022/10/25 08:42:06;;;;;;;3.78;1.38;;;23.50;53.00;;;;;;6150601;23;20001;-70
2022/10/25 08:44:57;;;;;;;12.88;3.55;;;23.60;53.50;;;;;;6152172;23;20337;-70
2022/10/25 08:47:35;;;;;;;1.40;0.80;;;23.60;53.50;;;;;;6151339;23;20081;-70
2022/10/25 08:50:26;;;;;;;3.42;0.77;;;23.60;53.50;;;;;;6151018;23;20002;-70
2022/10/25 08:53:00;;;;;;;2.05;0.70;;;23.70;53.90;;;;;;6152081;23;20025;-71
2022/10/25 08:55:34;;;;;;;3.13;0.90;;;23.70;54.10;;;;;;6150546;23;19997;-69
2022/10/25 08:58:06;;;;;;;13.45;1.20;;;23.70;54.10;;;;;;6152260;23;20049;-70
2022/10/25 09:00:38;;;;;;;2.53;0.85;;;23.80;54.10;;;;;;6151849;23;20040;-70
2022/10/25 09:03:12;;;;;;;5.80;2.63;;;23.90;53.80;;;;;;6151088;23;20008;-70
2022/10/25 09:05:50;;;;;;;3.97;0.90;;;23.90;53.10;;;;;;6151607;23;20056;-70
2022/10/25 09:08:41;;;;;;;2.15;0.65;;;24.00;52.40;;;;;;6151144;23;20009;-70
2022/10/25 09:11:35;;;;;;;3.22;0.82;;;24.10;52.20;;;;;;6151148;23;20392;-71
2022/10/25 09:14:23;;;;;;;2.08;0.75;;;24.10;52.10;;;;;;6151826;23;20025;-71
2022/10/25 09:16:52;;;;;;;2.42;0.85;;;24.10;52.30;;;;;;6150234;23;20006;-70
2022/10/25 09:19:33;;;;;;;22.42;1.70;;;24.00;53.00;;;;;;6152022;23;20029;-71
2022/10/25 09:22:11;;;;;;;4.32;0.88;;;24.00;53.80;;;;;;6151384;23;19998;-71
2022/10/25 09:24:51;;;;;;;3.38;0.50;;;24.10;54.50;;;;;;6149543;23;20417;-70
2022/10/25 09:27:34;;;;;;;6.00;1.58;;;24.10;54.70;;;;;;6152420;23;20015;-69
2022/10/25 09:30:06;;;;;;;3.20;0.98;;;24.10;54.90;;;;;;6150956;23;20009;-69
2022/10/25 09:32:51;;;;;;;2.72;0.50;;;24.10;55.50;;;;;;6151455;23;20041;-70
2022/10/25 09:35:23;;;;;;;1.80;0.60;;;24.10;55.50;;;;;;6152028;23;20051;-70
2022/10/25 09:37:59;;;;;;;1.30;0.65;;;24.20;54.60;;;;;;6150013;23;20436;-70
2022/10/25 09:40:35;;;;;;;4.63;0.77;;;24.20;54.10;;;;;;6151406;23;20072;-71
2022/10/25 09:43:07;;;;;;;8.90;2.78;;;24.20;54.10;;;;;;6149988;23;19998;-70
2022/10/25 09:45:48;;;;;;;4.47;0.88;;;24.30;54.00;;;;;;6149635;23;20024;-69
2022/10/25 09:48:30;;;;;;;8.50;2.22;;;24.30;54.40;;;;;;6150934;23;20013;-71
2022/10/25 09:51:09;;;;;;;3.00;0.90;;;24.40;54.20;;;;;;6150609;23;20076;-70
2022/10/25 09:53:39;;;;;;;1.63;0.95;;;24.40;54.00;;;;;;6151676;23;20059;-71
2022/10/25 09:56:06;;;;;;;0.75;0.50;;;24.40;54.00;;;;;;6149810;23;20393;-70
2022/10/25 09:58:38;;;;;;;27.23;3.35;;;24.40;53.90;;;;;;6151737;23;20313;-70
2022/10/25 10:01:21;;;;;;;5.88;1.75;;;24.40;54.00;;;;;;6151286;23;20086;-69
2022/10/25 10:03:48;;;;;;;5.68;0.95;;;24.40;54.80;;;;;;6150975;23;20073;-70
2022/10/25 10:06:38;;;;;;;2.28;0.43;;;24.30;54.80;;;;;;6152073;23;20049;-70
2022/10/25 10:09:09;;;;;;;2.50;0.88;;;24.30;55.20;;;;;;6150908;23;20088;-71
2022/10/25 10:11:37;;;;;;;2.47;0.65;;;24.30;55.70;;;;;;6151692;23;20049;-69
2022/10/25 10:14:26;;;;;;;5.65;1.10;;;24.30;56.00;;;;;;6151222;23;20048;-71
2022/10/25 10:16:56;;;;;;;9.25;1.10;;;24.30;55.90;;;;;;6138069;23;20002;-69
2022/10/25 10:19:25;;;;;;;12.80;2.65;;;24.30;55.90;;;;;;6151353;23;19998;-69
2022/10/25 10:21:53;;;;;;;9.55;1.38;;;24.30;56.10;;;;;;6150298;23;20318;-70
2022/10/25 10:24:30;;;;;;;16.35;2.38;;;24.30;56.60;;;;;;6151439;23;20056;-69
2022/10/25 10:27:04;;;;;;;2.13;1.35;;;24.30;56.50;;;;;;6150544;23;20004;-70
2022/10/25 10:29:35;;;;;;;2.17;0.98;;;24.30;56.50;;;;;;6150116;23;20032;-71
2022/10/25 10:32:25;;;;;;;2.55;0.50;;;24.30;56.50;;;;;;6152125;23;20044;-71
2022/10/25 10:34:56;;;;;;;1.90;0.70;;;24.40;56.80;;;;;;6149920;23;20012;-70
2022/10/25 10:37:25;;;;;;;2.38;1.02;;;24.40;56.70;;;;;;6151526;23;20006;-71
2022/10/25 10:40:05;;;;;;;4.65;1.13;;;24.30;56.90;;;;;;6150390;23;20329;-71
2022/10/25 10:42:36;;;;;;;3.38;1.40;;;24.30;57.30;;;;;;6150102;23;19998;-71
2022/10/25 10:45:11;;;;;;;4.22;1.08;;;24.30;57.20;;;;;;6151572;23;20112;-70
2022/10/25 10:47:55;;;;;;;12.63;2.28;;;24.40;57.20;;;;;;6149999;23;20027;-70
2022/10/25 10:50:23;;;;;;;3.40;1.20;;;24.40;56.80;;;;;;6151101;23;20013;-71
2022/10/25 10:52:59;;;;;;;4.65;1.33;;;24.40;56.50;;;;;;6150024;23;20455;-71
2022/10/25 10:55:53;;;;;;;6.18;1.23;;;24.40;56.30;;;;;;6152735;23;19998;-71
2022/10/25 10:58:36;;;;;;;3.13;1.13;;;24.50;56.40;;;;;;6153233;23;20005;-71
2022/10/25 11:01:10;;;;;;;1.25;1.15;;;24.50;56.40;;;;;;6152027;23;20005;-70
2022/10/25 11:03:44;;;;;;;1.50;1.00;;;24.60;56.30;;;;;;6152609;23;20009;-70
2022/10/25 11:06:33;;;;;;;1.55;0.60;;;24.60;55.90;;;;;;6152495;23;20010;-70
2022/10/25 11:09:11;;;;;;;2.78;0.98;;;24.60;55.60;;;;;;6151387;23;20080;-70
2022/10/25 11:11:39;;;;;;;1.08;0.40;;;24.60;55.50;;;;;;6153299;23;20138;-71
2022/10/25 11:14:12;;;;;;;0.73;0.50;;;24.60;55.20;;;;;;6152044;23;20002;-71
2022/10/25 11:17:08;;;;;;;2.40;0.55;;;24.70;55.20;;;;;;6152494;23;20005;-70
2022/10/25 11:20:01;;;;;;;1.20;0.50;;;24.70;54.30;;;;;;6152520;23;20006;-71
2022/10/25 11:23:02;;;;;;;2.58;0.22;;;24.70;54.20;;;;;;6151602;23;20076;-69
2022/10/25 11:25:48;;;;;;;0.40;0.35;;;24.80;54.50;;;;;;6152695;23;20068;-71
2022/10/25 11:28:24;;;;;;;1.33;1.10;;;24.90;53.80;;;;;;6153400;23;20048;-69
2022/10/25 11:31:06;;;;;;;1.23;0.55;;;25.00;53.60;;;;;;6151705;23;20001;-71
2022/10/25 11:34:04;;;;;;;3.70;1.40;;;25.00;53.30;;;;;;6152794;23;20341;-70
2022/10/25 11:36:41;;;;;;;9.02;1.45;;;25.20;53.10;;;;;;6152303;23;20008;-71
2022/10/25 11:39:40;;;;;;;3.83;1.73;;;25.30;52.70;;;;;;6151728;23;20002;-70
2022/10/25 11:42:21;;;;;;;3.13;1.23;;;25.50;52.40;;;;;;6103523;23;20031;-71
2022/10/25 11:45:13;;;;;;;2.45;0.98;;;25.60;52.40;;;;;;6151899;23;20048;-70
2022/10/25 11:48:08;;;;;;;3.30;1.00;;;25.70;52.10;;;;;;6151595;23;20437;-71
2022/10/25 11:50:48;;;;;;;4.72;1.50;;;25.80;51.60;;;;;;6152825;23;20084;-70
2022/10/25 11:53:41;;;;;;;3.25;2.28;;;25.90;51.40;;;;;;6151326;23;20455;-71
2022/10/25 11:56:26;;;;;;;8.52;1.20;;;26.00;51.00;;;;;;6151883;23;20448;-71
2022/10/25 11:58:58;;;;;;;1.15;0.80;;;26.10;50.90;;;;;;6152856;23;20002;-69
2022/10/25 12:02:03;;;;;;;3.58;1.38;;;26.10;50.60;;;;;;6151086;23;20371;-71
2022/10/25 14:19:40;;;;;;;23.25;4.20;;;25.70;51.30;;;;;;5116552;27;20404;-68
2022/10/25 14:22:26;;;;;;;27.98;5.40;;;26.00;51.10;;;;;;5089206;28;20136;-70
2022/10/25 14:24:54;;;;;;;9.35;2.95;;;26.00;51.10;;;;;;5099123;28;20020;-73
2022/10/25 14:27:38;;;;;;;10.32;3.00;;;26.10;51.00;;;;;;5103373;28;20106;-70
2022/10/25 14:30:24;;;;;;;16.17;2.40;;;26.10;50.90;;;;;;5097098;28;20020;-68
2022/10/25 14:33:24;;;;;;;6.28;1.63;;;26.10;51.70;;;;;;5103082;28;20111;-70
2022/10/25 14:35:54;;;;;;;8.07;1.35;;;26.10;52.30;;;;;;5074409;28;20036;-70
2022/10/25 14:38:24;;;;;;;4.05;1.90;;;26.10;52.00;;;;;;5100087;28;20058;-71
2022/10/25 14:40:56;;;;;;;7.10;3.75;;;26.10;51.60;;;;;;5109306;28;20020;-71
2022/10/25 14:43:34;;;;;;;3.75;3.25;;;26.10;51.60;;;;;;5100532;28;20043;-74
2022/10/25 14:46:13;;;;;;;2.30;1.67;;;26.00;51.40;;;;;;5101344;28;20099;-71
2022/10/25 14:48:41;;;;;;;4.22;1.00;;;26.00;51.40;;;;;;5101225;28;20027;-71
2022/10/25 14:51:23;;;;;;;5.32;1.00;;;26.00;51.40;;;;;;5107848;28;20054;-68
2022/10/25 14:54:12;;;;;;;1.88;0.47;;;26.00;51.40;;;;;;5110448;28;20026;-75
2022/10/25 14:56:59;;;;;;;2.75;1.45;;;25.90;51.30;;;;;;5107515;28;20024;-70
2022/10/25 14:59:28;;;;;;;5.05;0.90;;;25.90;51.50;;;;;;5106133;28;20051;-73
2022/10/25 15:01:59;;;;;;;0.82;0.40;;;25.90;51.60;;;;;;5104521;28;20023;-74
2022/10/25 15:04:28;;;;;;;2.38;0.80;;;25.80;51.60;;;;;;5099741;28;20390;-69
2022/10/25 15:06:55;;;;;;;5.93;1.80;;;25.80;51.70;;;;;;5101214;28;20028;-74
2022/10/25 15:09:21;;;;;;;0.88;0.68;;;25.80;51.80;;;;;;5098125;28;20056;-73
2022/10/25 15:12:06;;;;;;;16.15;2.70;;;25.70;51.80;;;;;;5098666;28;20040;-70
2022/10/25 15:14:34;;;;;;;35.88;3.92;;;25.70;51.90;;;;;;5097338;28;20038;-68
2022/10/25 15:17:04;;;;;;;15.57;2.10;;;25.70;52.40;;;;;;5097757;28;20115;-68
2022/10/25 15:19:30;;;;;;;8.25;1.77;;;25.60;53.10;;;;;;5086238;28;20103;-69
2022/10/25 15:22:10;;;;;;;6.88;1.13;;;25.60;53.10;;;;;;5086802;28;20110;-70
2022/10/25 15:24:47;;;;;;;9.32;5.20;;;25.60;52.90;;;;;;5085784;28;20024;-69
2022/10/25 15:27:24;;;;;;;8.45;4.65;;;25.60;52.90;;;;;;5089553;28;20032;-70
2022/10/25 15:29:51;;;;;;;16.92;2.97;;;25.50;52.90;;;;;;5089056;28;20098;-69
2022/10/25 15:32:19;;;;;;;13.40;2.40;;;25.50;53.10;;;;;;5090741;28;20390;-70
2022/10/25 15:34:53;;;;;;;21.20;2.63;;;25.50;53.30;;;;;;5088463;28;20016;-74
2022/10/25 15:37:22;;;;;;;14.33;3.20;;;25.50;53.50;;;;;;5107448;27;20028;-72
2022/10/25 15:39:51;;;;;;;6.88;1.52;;;25.40;54.10;;;;;;5091720;28;20019;-70
2022/10/25 15:42:18;;;;;;;12.50;1.88;;;25.40;54.20;;;;;;5085280;28;20063;-70
2022/10/25 15:44:45;;;;;;;14.95;1.75;;;25.40;54.40;;;;;;5091326;28;20115;-69
2022/10/25 15:47:26;;;;;;;7.15;1.75;;;25.40;54.40;;;;;;5087060;28;20044;-70
2022/10/25 15:49:53;;;;;;;5.45;0.73;;;25.40;54.40;;;;;;5088466;28;20024;-69
2022/10/25 15:52:19;;;;;;;1.75;1.27;;;25.40;54.40;;;;;;5089274;28;20499;-73
2022/10/25 15:54:46;;;;;;;2.65;1.10;;;25.30;54.40;;;;;;5094286;28;20032;-73
2022/10/25 15:57:13;;;;;;;6.63;1.08;;;25.30;54.40;;;;;;5096407;28;20031;-75
2022/10/25 15:59:39;;;;;;;6.32;0.90;;;25.30;54.60;;;;;;5096732;28;20526;-75
2022/10/25 16:02:18;;;;;;;6.50;0.95;;;25.30;54.80;;;;;;5089248;28;20020;-70
2022/10/25 16:04:45;;;;;;;10.07;1.35;;;25.20;54.90;;;;;;5082714;28;21436;-70
2022/10/25 16:07:21;;;;;;;2.70;0.77;;;25.20;55.10;;;;;;5088797;28;20051;-70
2022/10/25 16:09:49;;;;;;;2.20;1.48;;;25.20;55.20;;;;;;5069001;28;20032;-70
2022/10/25 16:12:28;;;;;;;2.72;1.40;;;25.20;55.30;;;;;;5088254;28;20040;-69
2022/10/25 16:14:55;;;;;;;3.70;0.68;;;25.20;55.60;;;;;;5071327;28;20035;-73
2022/10/25 16:17:22;;;;;;;7.65;1.20;;;25.20;55.70;;;;;;5086986;28;20040;-73
2022/10/25 16:19:49;;;;;;;2.17;1.17;;;25.10;55.90;;;;;;5074303;28;20015;-72
2022/10/25 16:22:15;;;;;;;4.38;1.02;;;25.10;56.10;;;;;;5087033;28;20032;-71
2022/10/25 16:24:42;;;;;;;6.82;1.13;;;25.10;56.40;;;;;;5080596;28;20119;-72
2022/10/25 16:27:13;;;;;;;4.53;1.17;;;25.00;56.70;;;;;;5085577;28;20383;-72
2022/10/25 16:29:40;;;;;;;2.72;0.85;;;25.00;57.00;;;;;;5080676;28;20059;-73
2022/10/25 16:32:06;;;;;;;17.83;7.25;;;24.90;57.30;;;;;;5080723;28;20031;-74
2022/10/25 16:34:33;;;;;;;16.15;6.72;;;24.90;58.10;;;;;;5077840;28;20012;-74
2022/10/25 16:36:59;;;;;;;12.48;6.00;;;24.80;58.60;;;;;;5082641;28;20031;-73
2022/10/25 16:39:26;;;;;;;7.65;4.28;;;24.80;58.70;;;;;;5079727;28;20498;-75
2022/10/25 16:41:54;;;;;;;4.05;1.48;;;24.70;58.60;;;;;;5084856;28;20023;-73
2022/10/25 16:44:20;;;;;;;3.67;1.30;;;24.70;58.70;;;;;;5077060;28;20033;-74
2022/10/25 16:46:47;;;;;;;1.98;1.23;;;24.70;58.80;;;;;;5082695;28;20032;-73
2022/10/25 16:49:13;;;;;;;3.45;1.50;;;24.60;58.90;;;;;;5083818;28;20039;-72
2022/10/25 16:51:40;;;;;;;3.92;1.20;;;24.60;59.00;;;;;;5080240;28;20506;-70
2022/10/25 16:54:07;;;;;;;3.60;1.63;;;24.60;59.10;;;;;;5084158;28;20107;-71
2022/10/25 16:56:34;;;;;;;2.75;1.23;;;24.50;59.10;;;;;;5080567;28;20027;-70
2022/10/25 16:59:00;;;;;;;3.42;1.00;;;24.50;60.00;;;;;;5080593;28;20028;-71
2022/10/25 17:01:32;;;;;;;4.28;1.02;;;24.50;59.80;;;;;;5085787;28;20020;-71
2022/10/25 17:03:59;;;;;;;1.67;0.80;;;24.40;60.20;;;;;;5083154;28;20023;-72
2022/10/25 17:06:26;;;;;;;2.85;1.20;;;24.40;60.50;;;;;;5080926;28;20052;-73
2022/10/25 17:08:53;;;;;;;4.00;1.17;;;24.30;60.70;;;;;;5074976;28;20023;-72
2022/10/25 17:11:19;;;;;;;2.58;0.80;;;24.30;60.80;;;;;;5065788;28;20422;-73
2022/10/25 17:13:46;;;;;;;3.08;0.90;;;24.30;61.00;;;;;;5082499;28;20032;-71
2022/10/25 17:16:15;;;;;;;17.08;8.80;;;24.30;60.70;;;;;;5081381;28;20559;-71
2022/10/25 17:18:41;;;;;;;16.65;13.27;;;24.20;60.50;;;;;;5082028;28;20040;-71
2022/10/25 17:21:11;;;;;;;18.75;9.75;;;24.20;60.80;;;;;;5084361;28;20031;-72
2022/10/25 17:23:38;;;;;;;11.73;4.82;;;24.20;61.10;;;;;;5083643;28;20067;-75
2022/10/25 17:26:06;;;;;;;5.35;3.08;;;24.20;61.40;;;;;;5085310;28;20560;-70
2022/10/25 17:28:33;;;;;;;5.55;1.30;;;24.20;61.50;;;;;;5078688;28;20027;-70
2022/10/25 17:31:00;;;;;;;7.03;1.30;;;24.10;61.60;;;;;;5077355;28;20113;-72
2022/10/25 17:33:27;;;;;;;2.75;1.52;;;24.10;62.40;;;;;;5077025;28;20017;-71
2022/10/25 17:35:53;;;;;;;10.07;1.42;;;24.10;62.50;;;;;;5071778;28;20463;-73
2022/10/25 17:38:23;;;;;;;1.52;0.95;;;24.00;62.60;;;;;;5081819;28;20024;-71
2022/10/25 17:40:49;;;;;;;4.88;1.17;;;23.90;62.70;;;;;;5074359;28;20028;-73
2022/10/25 17:43:16;;;;;;;4.40;1.23;;;23.90;62.60;;;;;;5078144;28;20028;-72
2022/10/25 17:45:43;;;;;;;4.68;1.05;;;23.90;62.70;;;;;;5074771;28;20023;-72
2022/10/25 17:48:11;;;;;;;5.13;0.88;;;23.90;62.80;;;;;;5080468;28;20063;-72
2022/10/25 17:50:39;;;;;;;5.95;1.67;;;23.80;62.60;;;;;;5077629;28;20511;-71
2022/10/25 17:53:13;;;;;;;2.75;1.15;;;23.80;62.50;;;;;;5076534;28;20171;-72
2022/10/25 17:55:40;;;;;;;12.53;2.10;;;23.80;62.70;;;;;;5078926;28;20508;-71
2022/10/25 17:58:06;;;;;;;9.23;1.52;;;23.70;62.90;;;;;;5073760;28;20471;-71
2022/10/25 18:00:34;;;;;;;5.85;1.10;;;23.70;63.30;;;;;;5078181;28;20389;-72
2022/10/25 18:03:02;;;;;;;7.45;3.97;;;23.70;63.60;;;;;;5077862;28;20547;-70
2022/10/25 18:05:30;;;;;;;5.78;3.25;;;23.70;64.00;;;;;;5081176;28;20530;-73
2022/10/25 18:07:56;;;;;;;2.50;1.55;;;23.70;64.20;;;;;;5080775;28;20040;-72
2022/10/25 18:10:23;;;;;;;8.52;2.47;;;23.60;64.40;;;;;;5075963;28;20028;-71
2022/10/25 18:12:49;;;;;;;5.75;3.38;;;23.60;65.00;;;;;;5080416;28;20055;-71
2022/10/25 18:15:16;;;;;;;3.20;0.93;;;23.60;65.20;;;;;;5076452;28;20078;-73
2022/10/25 18:17:44;;;;;;;2.42;1.50;;;23.60;65.40;;;;;;5075203;28;20431;-71
2022/10/25 18:20:12;;;;;;;3.33;1.10;;;23.60;65.40;;;;;;5077521;28;20108;-72
2022/10/25 18:22:38;;;;;;;9.98;1.48;;;23.60;66.30;;;;;;5079456;28;20439;-73
2022/10/25 18:25:44;;;;;;;5.65;1.80;;;23.50;65.90;;;;;;5078278;28;20028;-74
2022/10/25 18:28:10;;;;;;;;;;;23.50;66.30;;;;;;5077843;28;20028;-74
2022/10/25 18:30:37;;;;;;;1.15;1.00;;;23.50;66.60;;;;;;5078852;28;19954;-73
2022/10/25 18:33:07;;;;;;;7.68;1.63;;;23.50;66.70;;;;;;5078881;28;20039;-72
2022/10/25 18:35:34;;;;;;;3.42;1.75;;;23.50;66.90;;;;;;5077523;28;20535;-71
2022/10/25 18:38:00;;;;;;;3.42;1.08;;;23.50;67.00;;;;;;5074845;28;20399;-72
2022/10/25 18:40:27;;;;;;;5.35;1.92;;;23.40;67.10;;;;;;5083064;28;20024;-72
2022/10/25 18:42:53;;;;;;;6.40;1.77;;;23.50;67.20;;;;;;5079422;28;20067;-73
2022/10/25 18:45:20;;;;;;;3.33;1.23;;;23.50;67.30;;;;;;5080703;28;20039;-72
2022/10/25 18:47:52;;;;;;;6.05;1.88;;;23.40;67.40;;;;;;5076748;28;20043;-69
2022/10/25 18:50:19;;;;;;;6.30;2.75;;;23.40;67.40;;;;;;5076641;28;20060;-70
2022/10/25 18:52:46;;;;;;;13.70;9.73;;;23.40;67.40;;;;;;5080123;28;20022;-72
2022/10/25 18:55:13;;;;;;;15.52;5.63;;;23.40;67.50;;;;;;5086986;28;20390;-72
2022/10/25 18:57:39;;;;;;;16.45;6.63;;;23.40;67.50;;;;;;5081586;28;20382;-72
2022/10/25 19:00:07;;;;;;;9.82;4.55;;;23.30;67.70;;;;;;5083760;28;20051;-71
2022/10/25 19:02:33;;;;;;;6.47;2.17;;;23.30;67.60;;;;;;5087614;28;20024;-73
2022/10/25 19:05:00;;;;;;;11.57;4.55;;;23.30;67.30;;;;;;5084794;28;20020;-73
2022/10/25 19:07:27;;;;;;;10.43;2.65;;;23.30;67.40;;;;;;5084457;28;20043;-71
2022/10/25 19:09:53;;;;;;;20.67;4.70;;;23.20;67.50;;;;;;5081610;28;20028;-73
2022/10/25 19:12:59;;;;;;;11.13;2.55;;;23.20;67.50;;;;;;5083899;28;20027;-73
2022/10/25 19:16:05;;;;;;;10.73;3.20;;;23.20;67.50;;;;;;5080660;28;20078;-73
2022/10/25 19:19:11;;;;;;;10.15;2.80;;;23.20;67.20;;;;;;5085040;28;20632;-73
2022/10/25 19:22:17;;;;;;;12.52;2.38;;;23.10;66.80;;;;;;5086000;28;20024;-74
2022/10/25 19:25:24;;;;;;;6.80;2.67;;;23.10;66.70;;;;;;5080610;28;20020;-74
2022/10/25 19:27:50;;;;;;;9.48;2.17;;;23.10;66.60;;;;;;5085351;28;20040;-74